GCFVGCLA

Guest
Details From GCFV - Fuerteventura
To GCLA - La Palma
Flight Number -
Tags decoded
Created
Modified
Stats Distance 209 nm / 388 km
Max Altitude 0 ft / 0 m
Waypoints 3
Social Downloads 7
Likes 0
Share VATSIM

Download

Looking for another format? Having issues loading an existing format? Contact us
Advertisement - Login to hide

Notes

Requested: GCFV ARACO GCLA

Route

GCFV ARACO GCLA

ID Type Via Altitude Latitude Longitude Leg Dist Tot Dist Heading (true) Name
O GCFV APT - 0 ft / 0 m 28.44788˚ -13.86489˚ - 0 nm - Fuerteventura
ARACO FIX - 0 ft / 0 m 28.43252˚ -17.45233˚ 189 nm 189 nm 271° / 269° -
O GCLA APT - 0 ft / 0 m 28.62648˚ -17.75561˚ 19 nm 209 nm 306° / 306° La Palma

Altitude Profile

Advertisement - Login to hide

Weather


0- 5 10 15 20 25 30 35+ Temperature / ° C

Clouds and Precipitation
Forecast for 2017-12-11 18:00 UTC. Updated 2 minutes ago

Ground ~20,000 ft ~40,000 ft Winds

GCFV

Details ICAO GCFV (FUE)
Name Fuerteventura
Region Canary Islands
Timezone Atlantic/Canary (UTC+0.0)
Stats Elevation 85 ft / 26 m (AMSL)
Location 28.447882° -13.864892°
Runways 2
Magnetic Variation 4.099° W

METAR

GCFV 111500Z 28017KT 9999 SCT045 23/13 Q1014

Decode

TAF

TAF GCFV 111400Z 1115/1215 30015KT 9999 FEW030 SCT045 TX22/1115Z TN16/1206Z BECMG 1119/1121 36015KT TEMPO 1115/1118 30015G25KT TEMPO 1118/1121 34020G35KT TEMPO 1119/1123 3000 RA

Decode

Departure Runways

ID Width Length Bearing (true) Bearing (mag) Surface Threshold Offset Overrun Length
01L 148 ft / 45 m 5,433 ft / 1,656 m 1.67° 5.77° Asphalt 0 ft / 0 m 984 ft / 300 m
01R 148 ft / 45 m 7,905 ft / 2,409 m 1.66° 5.76° Asphalt 0 ft / 0 m 3,281 ft / 1,000 m
19L 148 ft / 45 m 7,905 ft / 2,409 m 181.66° 185.76° Asphalt 0 ft / 0 m 197 ft / 60 m
19R 148 ft / 45 m 5,433 ft / 1,656 m 181.67° 185.77° Asphalt 0 ft / 0 m 820 ft / 250 m

GCLA

Details ICAO GCLA (SPC)
Name La Palma
Region Canary Islands
Timezone Atlantic/Canary (UTC+0.0)
Stats Elevation 107 ft / 33 m (AMSL)
Location 28.626480° -17.755613°
Runways 1
Magnetic Variation 5.523° W

METAR

GCLA 111500Z 16006KT 120V200 9999 SCT050 23/14 Q1016

Decode

TAF

TAF GCLA 111400Z 1115/1215 VRB06KT 9999 FEW035 TX22/1115Z TN17/1206Z BECMG 1118/1120 36018KT TEMPO 1118/1215 36018G30KT TEMPO 1119/1202 3000 RA

Decode

Destination Runways

ID Width Length Bearing (true) Bearing (mag) Surface Threshold Offset Overrun Length
01 148 ft / 45 m 7,240 ft / 2,207 m 359.02° 4.54° Asphalt 0 ft / 0 m 279 ft / 85 m
19 148 ft / 45 m 7,240 ft / 2,207 m 179.02° 184.54° Asphalt 0 ft / 0 m 236 ft / 72 m

Popular Alternatives